createdAt,value
2018-06-02T00:00:47.303Z,69.02
2018-06-02T00:03:14.805Z,67.90
2018-06-02T00:05:42.257Z,68.16
2018-06-02T00:08:09.744Z,67.63
2018-06-02T00:10:37.193Z,68.18
2018-06-02T00:13:04.739Z,69.82
2018-06-02T00:15:32.191Z,68.03
2018-06-02T00:17:59.649Z,68.56
2018-06-02T00:20:27.128Z,68.06
2018-06-02T00:22:54.603Z,67.72
2018-06-02T00:25:22.078Z,71.87
2018-06-02T00:27:49.609Z,72.23
2018-06-02T00:30:17.069Z,70.50
2018-06-02T00:32:44.599Z,70.88
2018-06-02T00:35:12.043Z,68.20
2018-06-02T00:37:39.532Z,69.68
2018-06-02T00:40:06.992Z,68.63
2018-06-02T00:42:34.538Z,71.09
2018-06-02T00:45:02.019Z,70.51
2018-06-02T00:47:29.550Z,68.36
2018-06-02T00:49:57.048Z,69.81
2018-06-02T00:52:24.505Z,70.60
2018-06-02T00:55:03.715Z,72.23
2018-06-02T00:57:31.186Z,71.17
2018-06-02T00:59:58.747Z,69.40
2018-06-02T01:02:26.200Z,71.15
2018-06-02T01:04:53.656Z,70.92
2018-06-02T01:07:21.147Z,71.42
2018-06-02T01:09:48.580Z,71.67
2018-06-02T01:12:16.056Z,71.05
2018-06-02T01:14:43.690Z,71.25
2018-06-02T01:17:11.139Z,74.02
2018-06-02T01:19:38.612Z,72.76
2018-06-02T01:22:06.051Z,72.46
2018-06-02T01:24:33.494Z,71.22
2018-06-02T01:27:01.075Z,73.55
2018-06-02T01:29:28.541Z,73.19
2018-06-02T01:31:56.014Z,73.41
2018-06-02T01:34:23.464Z,74.50
2018-06-02T01:36:50.922Z,73.70
2018-06-02T01:39:18.387Z,75.70
2018-06-02T01:41:45.928Z,74.50
2018-06-02T01:44:13.379Z,74.83
2018-06-02T01:46:40.838Z,74.15
2018-06-02T01:49:08.293Z,74.72
2018-06-02T01:51:35.752Z,74.96
2018-06-02T01:54:03.217Z,74.77
2018-06-02T01:56:30.679Z,74.20
2018-06-02T01:58:58.120Z,74.76
2018-06-02T02:01:25.564Z,74.97
2018-06-02T02:03:53.011Z,75.58
2018-06-02T02:06:20.451Z,75.05
2018-06-02T02:08:47.895Z,74.32
2018-06-02T02:11:15.391Z,74.07
2018-06-02T02:13:42.859Z,75.04
2018-06-02T02:16:10.320Z,73.86
2018-06-02T02:18:37.801Z,75.10
2018-06-02T02:21:05.263Z,75.02
2018-06-02T02:23:32.744Z,75.70
2018-06-02T02:26:00.279Z,74.05
2018-06-02T02:28:27.723Z,75.02
2018-06-02T02:30:55.165Z,75.64
2018-06-02T02:33:22.627Z,75.63
2018-06-02T02:35:50.075Z,75.11
2018-06-02T02:38:17.539Z,75.51
2018-06-02T02:40:44.988Z,75.79
2018-06-02T02:43:12.461Z,75.80
2018-06-02T02:45:39.915Z,75.90
2018-06-02T02:48:07.431Z,76.12
2018-06-02T02:50:34.899Z,76.41
2018-06-02T02:53:02.350Z,75.70
2018-06-02T02:55:29.824Z,76.86
2018-06-02T02:57:57.321Z,76.09
2018-06-02T03:00:24.796Z,76.53
2018-06-02T03:02:52.266Z,76.71
2018-06-02T03:05:19.717Z,77.55
2018-06-02T03:07:47.150Z,77.61
2018-06-02T03:10:14.580Z,76.44
2018-06-02T03:12:42.066Z,77.25
2018-06-02T03:15:09.517Z,76.33
2018-06-02T03:17:36.967Z,76.15
2018-06-02T03:20:04.510Z,75.70
2018-06-02T03:22:31.928Z,75.69
2018-06-02T03:24:59.451Z,74.59
2018-06-02T03:27:26.901Z,74.27
2018-06-02T03:29:54.348Z,73.87
2018-06-02T03:32:21.809Z,73.88
2018-06-02T03:34:49.249Z,74.49
2018-06-02T03:37:16.810Z,73.61
2018-06-02T03:39:44.259Z,73.06
2018-06-02T03:42:11.738Z,73.45
2018-06-02T03:44:39.310Z,74.71
2018-06-02T03:47:06.779Z,73.07
2018-06-02T03:49:34.217Z,73.14
2018-06-02T03:52:01.732Z,72.40
2018-06-02T03:54:29.191Z,73.87
2018-06-02T03:56:56.638Z,74.13
2018-06-02T03:59:24.120Z,72.88
2018-06-02T04:01:51.601Z,71.49
2018-06-02T04:04:19.063Z,73.21
2018-06-02T04:06:46.498Z,72.15
2018-06-02T04:09:13.968Z,71.57
2018-06-02T04:11:41.428Z,71.64
2018-06-02T04:14:09.017Z,71.03
2018-06-02T04:16:36.472Z,71.76
2018-06-02T04:19:03.917Z,71.11
2018-06-02T04:21:31.367Z,70.75
2018-06-02T04:23:58.835Z,71.22
2018-06-02T04:26:26.370Z,71.59
2018-06-02T04:28:53.839Z,70.49
2018-06-02T04:31:21.315Z,69.55
2018-06-02T04:33:48.848Z,69.40
2018-06-02T04:36:16.409Z,68.53
2018-06-02T04:38:43.880Z,68.37
2018-06-02T04:41:11.329Z,68.68
2018-06-02T04:43:38.792Z,68.75
2018-06-02T04:46:06.450Z,68.99
2018-06-02T04:48:33.935Z,69.38
2018-06-02T04:51:01.377Z,69.57
2018-06-02T04:53:28.828Z,68.73
2018-06-02T04:55:56.307Z,68.58
2018-06-02T04:58:23.795Z,66.22
2018-06-02T05:00:51.254Z,67.45
2018-06-02T05:03:18.734Z,65.93
2018-06-02T05:05:46.208Z,66.19
2018-06-02T05:08:13.730Z,66.04
2018-06-02T05:10:41.179Z,67.98
2018-06-02T05:13:08.669Z,68.91
2018-06-02T05:15:36.127Z,69.74
2018-06-02T05:18:03.592Z,67.94
2018-06-02T05:20:31.048Z,64.33
2018-06-02T05:22:58.504Z,66.94
2018-06-02T05:25:26.062Z,63.86
2018-06-02T05:27:53.512Z,65.55
2018-06-02T05:30:20.965Z,63.34
2018-06-02T05:32:48.434Z,61.64
2018-06-02T05:35:15.887Z,62.09
2018-06-02T05:37:43.370Z,62.79
2018-06-02T05:40:10.836Z,61.10
2018-06-02T05:42:38.310Z,59.92
2018-06-02T05:45:05.818Z,61.99
2018-06-02T05:47:33.259Z,62.23
2018-06-02T05:50:00.729Z,61.95
2018-06-02T05:52:28.184Z,63.49
2018-06-02T05:54:55.664Z,60.74
2018-06-02T05:57:23.108Z,61.53
2018-06-02T05:59:50.582Z,58.78
2018-06-02T06:02:18.037Z,59.14
2018-06-02T06:04:45.510Z,58.89
2018-06-02T06:07:12.974Z,60.28
2018-06-02T06:09:40.422Z,61.62
2018-06-02T06:12:07.879Z,58.13
2018-06-02T06:14:35.357Z,58.43
2018-06-02T06:17:02.840Z,60.94
2018-06-02T06:19:30.327Z,58.89
2018-06-02T06:21:57.787Z,58.83
2018-06-02T06:24:25.285Z,58.24
2018-06-02T06:26:52.778Z,59.36
2018-06-02T06:29:20.233Z,60.99
2018-06-02T06:31:47.746Z,58.59
2018-06-02T06:34:15.259Z,59.30
2018-06-02T06:36:42.714Z,60.43
2018-06-02T06:39:10.194Z,60.88
2018-06-02T06:41:37.644Z,59.65
2018-06-02T06:44:05.103Z,58.49
2018-06-02T06:46:32.624Z,58.66
2018-06-02T06:49:00.070Z,58.46
2018-06-02T06:51:27.547Z,59.01
2018-06-02T06:53:55.035Z,57.61
2018-06-02T06:56:22.474Z,57.31
2018-06-02T06:58:49.952Z,57.49
2018-06-02T07:01:17.420Z,57.75
2018-06-02T07:03:44.949Z,56.37
2018-06-02T07:06:12.401Z,56.71
2018-06-02T07:08:39.848Z,56.25
2018-06-02T07:11:07.527Z,55.40
2018-06-02T07:13:35.109Z,55.24
2018-06-02T07:16:02.562Z,54.82
2018-06-02T07:18:29.985Z,53.95
2018-06-02T07:20:57.455Z,53.97
2018-06-02T07:23:24.902Z,53.57
2018-06-02T07:25:52.681Z,52.16
2018-06-02T07:28:20.140Z,51.64
2018-06-02T07:30:47.592Z,52.54
2018-06-02T07:33:15.037Z,50.15
2018-06-02T07:35:42.476Z,50.27
2018-06-02T07:38:09.927Z,49.84
2018-06-02T07:40:37.397Z,48.20
2018-06-02T07:43:04.945Z,48.41
2018-06-02T07:45:32.377Z,47.04
2018-06-02T07:47:59.817Z,46.59
2018-06-02T07:50:27.253Z,46.45
2018-06-02T07:52:54.949Z,46.05
2018-06-02T07:55:22.459Z,47.19
2018-06-02T07:57:49.918Z,49.65
2018-06-02T08:00:17.443Z,49.76
2018-06-02T08:02:44.895Z,51.44
2018-06-02T08:05:12.362Z,51.16
2018-06-02T08:07:39.801Z,50.98
2018-06-02T08:10:07.319Z,52.81
2018-06-02T08:12:34.776Z,51.31
2018-06-02T08:15:02.205Z,49.24
2018-06-02T08:17:29.917Z,49.39
2018-06-02T08:19:57.486Z,49.44
2018-06-02T08:22:24.946Z,50.10
2018-06-02T08:24:52.420Z,49.43
2018-06-02T08:27:19.874Z,48.16
2018-06-02T08:29:47.338Z,45.76
2018-06-02T08:32:14.815Z,45.79
2018-06-02T08:34:43.046Z,44.53
2018-06-02T08:37:10.505Z,43.92
2018-06-02T08:39:37.948Z,44.42
2018-06-02T08:42:05.522Z,42.88
2018-06-02T08:44:32.999Z,43.64
2018-06-02T08:47:00.648Z,44.00
2018-06-02T08:49:28.108Z,42.04
2018-06-02T08:51:55.564Z,40.76
2018-06-02T08:54:23.004Z,41.50
2018-06-02T08:56:50.511Z,41.25
2018-06-02T08:59:18.037Z,41.84
2018-06-02T09:01:45.554Z,41.10
2018-06-02T09:04:12.993Z,41.15
2018-06-02T09:06:40.467Z,41.17
2018-06-02T09:09:07.956Z,41.46
2018-06-02T09:11:35.451Z,40.46
2018-06-02T09:14:02.941Z,39.76
2018-06-02T09:16:30.389Z,38.92
2018-06-02T09:18:58.066Z,40.31
2018-06-02T09:21:25.531Z,40.33
2018-06-02T09:23:52.978Z,39.25
2018-06-02T09:26:20.432Z,40.15
2018-06-02T09:28:48.095Z,41.13
2018-06-02T09:31:15.737Z,41.34
2018-06-02T09:33:43.219Z,41.35
2018-06-02T09:36:10.712Z,40.08
2018-06-02T09:38:38.164Z,39.23
2018-06-02T09:41:05.958Z,39.37
2018-06-02T09:43:33.422Z,36.40
2018-06-02T09:46:00.928Z,39.61
2018-06-02T09:48:28.466Z,35.71
2018-06-02T09:50:55.938Z,36.45
2018-06-02T09:53:23.388Z,40.70
2018-06-02T09:55:50.836Z,39.29
2018-06-02T09:58:19.093Z,35.28
2018-06-02T10:00:46.546Z,33.68
2018-06-02T10:03:14.162Z,33.82
2018-06-02T10:05:41.629Z,34.29
2018-06-02T10:08:09.197Z,33.54
2018-06-02T10:10:36.724Z,36.71
2018-06-02T10:13:04.468Z,33.00
2018-06-02T10:15:31.960Z,35.05
2018-06-02T10:17:59.432Z,35.85
2018-06-02T10:20:26.935Z,37.14
2018-06-02T10:22:54.395Z,36.74
2018-06-02T10:25:32.598Z,32.41
2018-06-02T10:28:14.175Z,33.85
2018-06-02T10:30:41.753Z,36.57
2018-06-02T10:33:09.224Z,35.42
2018-06-02T10:35:36.743Z,37.02
2018-06-02T10:38:04.221Z,32.81
2018-06-02T10:40:31.657Z,32.98
2018-06-02T10:42:59.126Z,34.04
2018-06-02T10:45:26.658Z,31.72
2018-06-02T10:47:54.133Z,33.80
2018-06-02T10:50:21.584Z,34.00
2018-06-02T10:52:49.063Z,33.60
2018-06-02T10:55:16.500Z,32.70
2018-06-02T10:57:44.202Z,32.42
2018-06-02T11:00:11.634Z,32.23
2018-06-02T11:08:44.454Z,31.73
2018-06-02T11:11:11.913Z,31.06
2018-06-02T11:13:39.404Z,32.81
2018-06-02T11:16:06.867Z,31.73
2018-06-02T11:18:34.317Z,31.17
2018-06-02T11:21:01.789Z,32.20
2018-06-02T11:23:29.256Z,32.99
2018-06-02T11:25:56.738Z,34.90
2018-06-02T11:28:24.191Z,32.30
2018-06-02T11:30:51.635Z,34.16
2018-06-02T11:33:19.096Z,33.00
2018-06-02T11:35:46.586Z,34.92
2018-06-02T11:38:14.071Z,34.03
2018-06-02T11:40:41.574Z,33.47
2018-06-02T11:43:09.060Z,33.92
2018-06-02T11:45:36.560Z,34.22
2018-06-02T11:48:04.059Z,35.08
2018-06-02T11:50:31.557Z,36.04
2018-06-02T11:52:59.025Z,37.39
2018-06-02T11:55:26.509Z,32.60
2018-06-02T11:57:53.977Z,30.49
2018-06-02T12:00:21.431Z,33.58
2018-06-02T12:02:49.008Z,34.46
2018-06-02T12:05:16.462Z,30.96
2018-06-02T12:07:43.929Z,33.07
2018-06-02T12:10:11.380Z,32.92
2018-06-02T12:12:38.870Z,31.43
2018-06-02T12:15:06.382Z,21.95
2018-06-02T12:17:33.873Z,19.28
2018-06-02T12:20:01.448Z,25.27
2018-06-02T12:22:28.921Z,24.70
2018-06-02T12:24:56.443Z,20.53
2018-06-02T12:27:23.917Z,20.96
2018-06-02T12:29:51.437Z,22.22
2018-06-02T12:32:18.929Z,24.88
2018-06-02T12:34:46.422Z,23.60
2018-06-02T12:37:13.883Z,26.67
2018-06-02T12:39:41.360Z,20.10
2018-06-02T12:42:08.834Z,22.72
2018-06-02T12:44:36.299Z,21.78
2018-06-02T12:47:06.234Z,21.28
2018-06-02T12:49:34.030Z,25.04
2018-06-02T12:52:01.559Z,21.63
2018-06-02T12:54:29.057Z,20.52
2018-06-02T12:56:56.526Z,20.99
2018-06-02T12:59:24.019Z,21.85
2018-06-02T13:01:51.561Z,20.10
2018-06-02T13:04:19.051Z,17.09
2018-06-02T13:06:46.562Z,14.90
2018-06-02T13:09:14.044Z,14.08
2018-06-02T13:11:42.344Z,16.53
2018-06-02T13:14:09.833Z,18.70
2018-06-02T13:16:37.306Z,21.27
2018-06-02T13:19:04.774Z,24.31
2018-06-02T13:21:32.254Z,26.62
2018-06-02T13:23:59.754Z,26.65
2018-06-02T13:26:27.242Z,26.36
2018-06-02T13:28:54.697Z,20.27
2018-06-02T13:31:22.173Z,19.78
2018-06-02T13:33:49.635Z,17.65
2018-06-02T13:36:17.135Z,16.36
2018-06-02T13:38:44.655Z,18.49
2018-06-02T13:41:12.110Z,19.15
2018-06-02T13:43:39.662Z,15.92
2018-06-02T13:46:07.110Z,17.56
2018-06-02T13:48:34.567Z,15.40
2018-06-02T13:51:02.027Z,14.12
2018-06-02T13:53:29.504Z,13.95
2018-06-02T13:55:57.048Z,16.08
2018-06-02T13:58:24.503Z,17.62
2018-06-02T14:00:52.109Z,19.12
2018-06-02T14:03:19.573Z,18.76
2018-06-02T14:05:47.022Z,19.14
2018-06-02T14:08:14.484Z,15.27
2018-06-02T14:10:41.948Z,14.74
2018-06-02T14:13:09.426Z,14.59
2018-06-02T14:15:36.930Z,14.78
2018-06-02T14:18:04.430Z,16.91
2018-06-02T14:20:31.945Z,14.90
2018-06-02T14:22:59.389Z,16.28
2018-06-02T14:25:26.919Z,15.42
2018-06-02T14:27:54.422Z,17.51
2018-06-02T14:30:21.981Z,20.23
2018-06-02T14:32:49.505Z,14.80
2018-06-02T14:35:17.110Z,20.51
2018-06-02T14:37:44.648Z,23.35
2018-06-02T14:40:12.087Z,23.21
2018-06-02T14:42:39.527Z,19.12
2018-06-02T14:45:07.005Z,22.10
2018-06-02T14:47:34.455Z,22.28
2018-06-02T14:50:01.914Z,21.22
2018-06-02T14:52:29.350Z,22.84
2018-06-02T14:54:56.844Z,20.84
2018-06-02T14:57:24.290Z,15.20
2018-06-02T14:59:51.759Z,14.14
2018-06-02T15:02:19.237Z,14.26
2018-06-02T15:04:46.713Z,17.49
2018-06-02T15:07:14.181Z,17.44
2018-06-02T15:09:41.672Z,13.88
2018-06-02T15:12:09.139Z,14.11
2018-06-02T15:14:36.822Z,15.09
2018-06-02T15:17:04.253Z,18.61
2018-06-02T15:19:31.737Z,21.18
2018-06-02T15:21:59.186Z,22.24
2018-06-02T15:24:26.649Z,26.76
2018-06-02T15:26:54.120Z,26.68
2018-06-02T15:29:21.555Z,24.93
2018-06-02T15:31:49.006Z,23.12
2018-06-02T15:34:16.575Z,22.49
2018-06-02T15:36:48.745Z,20.87
2018-06-02T15:39:16.218Z,23.19
2018-06-02T15:41:43.771Z,25.93
2018-06-02T15:44:11.303Z,23.38
2018-06-02T15:46:38.767Z,21.98
2018-06-02T15:49:06.209Z,27.23
2018-06-02T15:51:33.704Z,22.87
2018-06-02T15:54:01.264Z,24.63
2018-06-02T15:56:28.798Z,26.21
2018-06-02T15:58:57.334Z,30.32
2018-06-02T16:01:24.801Z,30.11
2018-06-02T16:03:52.298Z,32.73
2018-06-02T16:06:19.761Z,33.45
2018-06-02T16:08:47.228Z,27.68
2018-06-02T16:11:14.723Z,21.24
2018-06-02T16:13:42.227Z,21.17
2018-06-02T16:16:09.769Z,17.83
2018-06-02T16:18:37.245Z,20.18
2018-06-02T16:21:04.695Z,23.63
2018-06-02T16:23:32.147Z,23.76
2018-06-02T16:25:59.615Z,25.69
2018-06-02T16:28:27.077Z,28.57
2018-06-02T16:30:54.525Z,25.36
2018-06-02T16:33:22.051Z,21.96
2018-06-02T16:35:49.514Z,20.38
2018-06-02T16:38:16.977Z,20.27
2018-06-02T16:40:44.410Z,20.34
2018-06-02T16:43:12.134Z,21.88
2018-06-02T16:45:39.622Z,21.30
2018-06-02T16:48:07.064Z,22.81
2018-06-02T16:50:34.534Z,22.26
2018-06-02T16:53:01.992Z,24.91
2018-06-02T16:55:29.473Z,23.36
2018-06-02T16:57:56.999Z,22.13
2018-06-02T17:00:24.512Z,22.06
2018-06-02T17:02:51.981Z,20.99
2018-06-02T17:05:19.445Z,21.29
2018-06-02T17:07:46.908Z,25.53
2018-06-02T17:10:14.353Z,21.62
2018-06-02T17:12:41.817Z,22.17
2018-06-02T17:15:09.272Z,24.43
2018-06-02T17:17:36.733Z,23.71
2018-06-02T17:20:04.349Z,28.42
2018-06-02T17:22:31.754Z,31.07
2018-06-02T17:24:59.197Z,30.95
2018-06-02T17:27:26.656Z,24.57
2018-06-02T17:29:54.117Z,24.77
2018-06-02T17:32:21.834Z,28.14
2018-06-02T17:34:49.290Z,29.67
2018-06-02T17:37:16.773Z,26.37
2018-06-02T17:39:45.436Z,24.35
2018-06-02T17:42:12.991Z,25.18
2018-06-02T17:44:40.604Z,24.34
2018-06-02T17:47:08.077Z,24.37
2018-06-02T17:49:35.524Z,22.14
2018-06-02T17:52:02.968Z,21.99
2018-06-02T17:54:30.450Z,20.83
2018-06-02T17:56:57.917Z,23.67
2018-06-02T17:59:25.394Z,26.43
2018-06-02T18:01:52.907Z,25.52
2018-06-02T18:04:20.345Z,29.09
2018-06-02T18:06:47.791Z,30.07
2018-06-02T18:09:15.250Z,32.62
2018-06-02T18:11:42.719Z,33.29
2018-06-02T18:14:10.197Z,33.73
2018-06-02T18:16:37.751Z,35.03
2018-06-02T18:19:05.187Z,36.85
2018-06-02T18:21:32.629Z,40.12
2018-06-02T18:24:00.095Z,39.29
2018-06-02T18:26:27.553Z,38.39
2018-06-02T18:28:55.020Z,42.47
2018-06-02T18:31:22.471Z,40.76
2018-06-02T18:33:49.927Z,39.41
2018-06-02T18:36:17.373Z,41.65
2018-06-02T18:38:44.836Z,38.28
2018-06-02T18:41:12.324Z,41.37
2018-06-02T18:43:39.771Z,40.10
2018-06-02T18:46:07.294Z,42.66
2018-06-02T18:48:34.767Z,44.33
2018-06-02T18:51:02.352Z,46.39
2018-06-02T18:53:29.816Z,44.53
2018-06-02T18:55:57.363Z,45.30
2018-06-02T18:58:24.807Z,45.19
2018-06-02T19:00:52.308Z,48.16
2018-06-02T19:03:19.758Z,48.40
2018-06-02T19:05:47.237Z,48.73
2018-06-02T19:08:14.676Z,46.44
2018-06-02T19:10:42.177Z,47.80
2018-06-02T19:13:09.622Z,50.90
2018-06-02T19:15:37.135Z,49.96
2018-06-02T19:18:04.778Z,49.36
2018-06-02T19:20:32.249Z,48.76
2018-06-02T19:22:59.815Z,49.59
2018-06-02T19:25:27.283Z,49.84
2018-06-02T19:27:54.746Z,49.63
2018-06-02T19:30:22.194Z,48.56
2018-06-02T19:32:49.669Z,49.28
2018-06-02T19:35:17.206Z,48.83
2018-06-02T19:37:44.663Z,48.60
2018-06-02T19:40:12.116Z,49.21
2018-06-02T19:42:39.572Z,49.05
2018-06-02T19:45:07.151Z,51.49
2018-06-02T19:47:34.666Z,51.03
2018-06-02T19:50:02.132Z,49.78
2018-06-02T19:52:29.589Z,53.99
2018-06-02T19:54:57.029Z,52.38
2018-06-02T19:57:24.478Z,47.07
2018-06-02T19:59:51.934Z,48.24
2018-06-02T20:02:19.470Z,48.14
2018-06-02T20:04:50.150Z,51.23
2018-06-02T20:07:17.681Z,49.51
2018-06-02T20:09:45.160Z,50.17
2018-06-02T20:12:12.731Z,48.92
2018-06-02T20:14:40.237Z,50.06
2018-06-02T20:17:09.306Z,50.81
2018-06-02T20:19:36.919Z,49.93
2018-06-02T20:22:04.376Z,48.87
2018-06-02T20:24:31.886Z,48.61
2018-06-02T20:26:59.438Z,47.69
2018-06-02T20:29:26.891Z,50.12
2018-06-02T20:31:54.319Z,48.71
2018-06-02T20:34:21.807Z,49.32
2018-06-02T20:36:49.259Z,48.73
2018-06-02T20:39:16.746Z,49.35
2018-06-02T20:41:44.201Z,49.60
2018-06-02T20:44:11.659Z,49.61
2018-06-02T20:46:39.177Z,48.72
2018-06-02T20:49:06.646Z,48.25
2018-06-02T20:51:34.110Z,48.90
2018-06-02T20:54:01.758Z,48.27
2018-06-02T20:56:29.458Z,48.06
2018-06-02T20:58:57.065Z,50.07
2018-06-02T21:01:24.760Z,50.05
2018-06-02T21:03:53.742Z,51.34
2018-06-02T21:06:21.269Z,50.43
2018-06-02T21:08:48.757Z,51.45
2018-06-02T21:11:16.324Z,50.84
2018-06-02T21:13:43.987Z,49.57
2018-06-02T21:16:27.559Z,49.42
2018-06-02T21:19:01.292Z,50.41
2018-06-02T21:21:34.852Z,52.23
2018-06-02T21:24:06.892Z,51.34
2018-06-02T21:26:34.673Z,51.01
2018-06-02T21:29:06.455Z,56.96
2018-06-02T21:31:38.853Z,51.73
2018-06-02T21:34:19.288Z,55.64
2018-06-02T21:36:50.748Z,56.22
2018-06-02T21:39:20.470Z,54.81
2018-06-02T21:41:51.860Z,55.54
2018-06-02T21:46:58.376Z,55.71
2018-06-02T21:49:31.853Z,56.86
2018-06-02T21:52:01.131Z,58.55
2018-06-02T21:54:29.894Z,55.08
2018-06-02T21:56:59.831Z,57.51
2018-06-02T21:59:27.360Z,57.58
2018-06-02T22:01:54.919Z,58.00
2018-06-02T22:04:22.315Z,56.57
2018-06-02T22:06:49.807Z,56.78
2018-06-02T22:09:17.277Z,60.55
2018-06-02T22:11:44.759Z,58.18
2018-06-02T22:14:12.212Z,58.74
2018-06-02T22:16:39.727Z,59.32
2018-06-02T22:19:07.352Z,60.29
2018-06-02T22:21:34.819Z,59.98
2018-06-02T22:24:02.493Z,59.45
2018-06-02T22:26:29.969Z,59.13
2018-06-02T22:28:57.480Z,58.91
2018-06-02T22:31:24.982Z,59.97
2018-06-02T22:33:52.477Z,59.90
2018-06-02T22:36:20.000Z,60.99
2018-06-02T22:38:47.415Z,60.31
2018-06-02T22:41:14.853Z,61.36
2018-06-02T22:43:42.344Z,60.75
2018-06-02T22:46:09.801Z,61.09
2018-06-02T22:48:37.266Z,60.71
2018-06-02T22:51:04.856Z,61.70
2018-06-02T22:53:32.303Z,61.75
2018-06-02T22:55:59.798Z,64.14
2018-06-02T22:58:27.273Z,62.31
2018-06-02T23:00:54.861Z,66.07
2018-06-02T23:03:22.438Z,64.12
2018-06-02T23:05:49.900Z,64.96
2018-06-02T23:08:17.407Z,58.93
2018-06-02T23:10:44.870Z,59.23
2018-06-02T23:13:12.320Z,60.46
2018-06-02T23:15:39.763Z,61.78
2018-06-02T23:18:07.249Z,62.08
2018-06-02T23:20:36.271Z,62.79
2018-06-02T23:23:06.047Z,62.78
2018-06-02T23:25:34.154Z,62.80
2018-06-02T23:28:11.313Z,63.78
2018-06-02T23:30:38.917Z,64.11
2018-06-02T23:33:06.413Z,64.17
2018-06-02T23:35:33.870Z,65.34
2018-06-02T23:38:02.115Z,63.50
2018-06-02T23:40:29.646Z,63.75
2018-06-02T23:42:57.181Z,62.88
2018-06-02T23:45:24.637Z,63.57
2018-06-02T23:47:52.077Z,64.25
2018-06-02T23:50:19.590Z,65.80
2018-06-02T23:52:47.135Z,67.73
2018-06-02T23:55:14.600Z,65.59
2018-06-02T23:57:42.074Z,65.23
